sensor_id;sensor_type;location;lat;lon;timestamp;pressure;altitude;pressure_sealevel;temperature;humidity
32761;BME280;19126;47.472;7.850;2023-05-14T00:01:24;96531.50;;;9.76;20.06
32761;BME280;19126;47.472;7.850;2023-05-14T00:03:51;96529.88;;;9.75;19.15
32761;BME280;19126;47.472;7.850;2023-05-14T00:06:19;96530.66;;;9.75;19.53
32761;BME280;19126;47.472;7.850;2023-05-14T00:08:46;96526.59;;;9.73;19.21
32761;BME280;19126;47.472;7.850;2023-05-14T00:11:13;96531.00;;;9.72;18.21
32761;BME280;19126;47.472;7.850;2023-05-14T00:13:41;96529.22;;;9.73;18.25
32761;BME280;19126;47.472;7.850;2023-05-14T00:16:10;96533.63;;;9.72;18.21
32761;BME280;19126;47.472;7.850;2023-05-14T00:18:38;96529.38;;;9.71;17.57
32761;BME280;19126;47.472;7.850;2023-05-14T00:21:05;96527.75;;;9.70;18.68
32761;BME280;19126;47.472;7.850;2023-05-14T00:23:32;96515.16;;;9.65;17.59
32761;BME280;19126;47.472;7.850;2023-05-14T00:25:59;96526.09;;;9.69;17.64
32761;BME280;19126;47.472;7.850;2023-05-14T00:28:27;96523.03;;;9.65;18.04
32761;BME280;19126;47.472;7.850;2023-05-14T00:30:54;96519.75;;;9.63;17.76
32761;BME280;19126;47.472;7.850;2023-05-14T00:33:23;96519.91;;;9.62;17.35
32761;BME280;19126;47.472;7.850;2023-05-14T00:35:50;96519.91;;;9.62;16.62
32761;BME280;19126;47.472;7.850;2023-05-14T00:38:17;96520.09;;;9.60;17.23
32761;BME280;19126;47.472;7.850;2023-05-14T00:40:45;96517.47;;;9.60;17.52
32761;BME280;19126;47.472;7.850;2023-05-14T00:43:17;96520.25;;;9.59;16.73
32761;BME280;19126;47.472;7.850;2023-05-14T00:45:44;96516.97;;;9.57;16.70
32761;BME280;19126;47.472;7.850;2023-05-14T00:48:12;96518.63;;;9.58;16.47
32761;BME280;19126;47.472;7.850;2023-05-14T00:50:42;96516.19;;;9.56;16.93
32761;BME280;19126;47.472;7.850;2023-05-14T00:53:10;96516.19;;;9.56;16.72
32761;BME280;19126;47.472;7.850;2023-05-14T00:55:39;96514.34;;;9.57;16.25
32761;BME280;19126;47.472;7.850;2023-05-14T00:58:10;96514.19;;;9.58;16.91
32761;BME280;19126;47.472;7.850;2023-05-14T01:03:13;96507.66;;;9.54;16.19
32761;BME280;19126;47.472;7.850;2023-05-14T01:05:55;96500.78;;;9.53;16.74
32761;BME280;19126;47.472;7.850;2023-05-14T01:08:33;96497.97;;;9.55;16.32
32761;BME280;19126;47.472;7.850;2023-05-14T01:11:06;96499.13;;;9.60;16.38
32761;BME280;19126;47.472;7.850;2023-05-14T01:13:50;96503.88;;;9.57;16.85
32761;BME280;19126;47.472;7.850;2023-05-14T01:16:24;96498.81;;;9.55;17.11
32761;BME280;19126;47.472;7.850;2023-05-14T01:18:53;96504.84;;;9.56;16.22
32761;BME280;19126;47.472;7.850;2023-05-14T01:21:37;96497.31;;;9.52;16.67
32761;BME280;19126;47.472;7.850;2023-05-14T01:24:06;96502.56;;;9.52;15.85
32761;BME280;19126;47.472;7.850;2023-05-14T01:26:34;96503.75;;;9.50;15.89
32761;BME280;19126;47.472;7.850;2023-05-14T01:29:10;96501.28;;;9.48;15.60
32761;BME280;19126;47.472;7.850;2023-05-14T01:31:43;96507.50;;;9.47;16.24
32761;BME280;19126;47.472;7.850;2023-05-14T01:34:12;96505.22;;;9.44;16.96
32761;BME280;19126;47.472;7.850;2023-05-14T01:36:42;96501.97;;;9.42;16.08
32761;BME280;19126;47.472;7.850;2023-05-14T01:39:10;96494.28;;;9.41;16.12
32761;BME280;19126;47.472;7.850;2023-05-14T01:41:38;96492.78;;;9.38;15.73
32761;BME280;19126;47.472;7.850;2023-05-14T01:44:07;96502.47;;;9.37;17.13
32761;BME280;19126;47.472;7.850;2023-05-14T01:46:34;96506.25;;;9.35;17.40
32761;BME280;19126;47.472;7.850;2023-05-14T01:49:02;96505.94;;;9.30;16.55
32761;BME280;19126;47.472;7.850;2023-05-14T01:51:29;96511.19;;;9.30;17.46
32761;BME280;19126;47.472;7.850;2023-05-14T01:53:57;96508.91;;;9.27;17.55
32761;BME280;19126;47.472;7.850;2023-05-14T01:56:25;96501.53;;;9.22;17.80
32761;BME280;19126;47.472;7.850;2023-05-14T01:58:52;96494.00;;;9.19;16.74
32761;BME280;19126;47.472;7.850;2023-05-14T02:01:21;96496.81;;;9.17;17.75
32761;BME280;19126;47.472;7.850;2023-05-14T02:03:48;96496.31;;;9.14;18.19
32761;BME280;19126;47.472;7.850;2023-05-14T02:06:16;96504.69;;;9.09;17.87
32761;BME280;19126;47.472;7.850;2023-05-14T02:08:43;96494.03;;;9.02;19.05
32761;BME280;19126;47.472;7.850;2023-05-14T02:11:12;96498.16;;;8.97;19.46
32761;BME280;19126;47.472;7.850;2023-05-14T02:13:39;96499.47;;;8.92;18.99
32761;BME280;19126;47.472;7.850;2023-05-14T02:16:07;96502.59;;;8.88;19.04
32761;BME280;19126;47.472;7.850;2023-05-14T02:18:34;96495.88;;;8.85;18.84
32761;BME280;19126;47.472;7.850;2023-05-14T02:21:02;96491.97;;;8.81;19.42
32761;BME280;19126;47.472;7.850;2023-05-14T02:23:29;96485.91;;;8.80;20.85
32761;BME280;19126;47.472;7.850;2023-05-14T02:25:56;96483.47;;;8.79;20.47
32761;BME280;19126;47.472;7.850;2023-05-14T02:28:25;96485.56;;;8.84;20.12
32761;BME280;19126;47.472;7.850;2023-05-14T02:30:57;96487.38;;;8.83;21.43
32761;BME280;19126;47.472;7.850;2023-05-14T02:33:25;96486.41;;;8.76;21.29
32761;BME280;19126;47.472;7.850;2023-05-14T02:35:53;96480.19;;;8.77;21.53
32761;BME280;19126;47.472;7.850;2023-05-14T02:38:20;96479.03;;;8.79;21.19
32761;BME280;19126;47.472;7.850;2023-05-14T02:40:47;96485.09;;;8.80;21.63
32761;BME280;19126;47.472;7.850;2023-05-14T02:43:14;96476.41;;;8.79;21.02
32761;BME280;19126;47.472;7.850;2023-05-14T02:45:43;96481.81;;;8.78;20.84
32761;BME280;19126;47.472;7.850;2023-05-14T02:48:10;96480.19;;;8.77;21.67
32761;BME280;19126;47.472;7.850;2023-05-14T02:50:38;96475.44;;;8.72;20.17
32761;BME280;19126;47.472;7.850;2023-05-14T02:53:05;96477.25;;;8.72;20.36
32761;BME280;19126;47.472;7.850;2023-05-14T02:55:33;96478.22;;;8.71;19.87
32761;BME280;19126;47.472;7.850;2023-05-14T02:58:00;96473.16;;;8.69;20.25
32761;BME280;19126;47.472;7.850;2023-05-14T03:00:27;96474.31;;;8.67;19.40
32761;BME280;19126;47.472;7.850;2023-05-14T03:02:56;96483.47;;;8.62;18.57
32761;BME280;19126;47.472;7.850;2023-05-14T03:05:23;96480.03;;;8.70;18.70
32761;BME280;19126;47.472;7.850;2023-05-14T03:07:51;96474.47;;;8.65;18.26
32761;BME280;19126;47.472;7.850;2023-05-14T03:10:18;96474.47;;;8.65;18.84
32761;BME280;19126;47.472;7.850;2023-05-14T03:12:46;96467.91;;;8.61;18.04
32761;BME280;19126;47.472;7.850;2023-05-14T03:15:14;96472.50;;;8.59;17.78
32761;BME280;19126;47.472;7.850;2023-05-14T03:17:41;96472.03;;;8.63;17.66
32761;BME280;19126;47.472;7.850;2023-05-14T03:20:11;96474.13;;;8.68;17.86
32761;BME280;19126;47.472;7.850;2023-05-14T03:22:39;96467.44;;;8.57;18.95
32761;BME280;19126;47.472;7.850;2023-05-14T03:25:07;96469.75;;;8.52;19.05
32761;BME280;19126;47.472;7.850;2023-05-14T03:27:34;96470.06;;;8.49;18.74
32761;BME280;19126;47.472;7.850;2023-05-14T03:30:02;96474.94;;;8.44;18.05
32761;BME280;19126;47.472;7.850;2023-05-14T03:32:30;96474.13;;;8.43;18.04
32761;BME280;19126;47.472;7.850;2023-05-14T03:34:58;96479.34;;;8.43;17.02
32761;BME280;19126;47.472;7.850;2023-05-14T03:37:26;96475.09;;;8.42;17.71
32761;BME280;19126;47.472;7.850;2023-05-14T03:39:54;96473.00;;;8.38;16.41
32761;BME280;19126;47.472;7.850;2023-05-14T03:42:21;96473.97;;;8.36;17.45
32761;BME280;19126;47.472;7.850;2023-05-14T03:44:48;96468.22;;;8.33;17.12
32761;BME280;19126;47.472;7.850;2023-05-14T03:47:15;96481.50;;;8.31;17.11
32761;BME280;19126;47.472;7.850;2023-05-14T03:49:43;96477.41;;;8.29;15.92
32761;BME280;19126;47.472;7.850;2023-05-14T03:52:10;96482.63;;;8.29;16.82
32761;BME280;19126;47.472;7.850;2023-05-14T03:54:39;96485.75;;;8.24;16.48
32761;BME280;19126;47.472;7.850;2023-05-14T03:57:06;96475.28;;;8.24;15.30
32761;BME280;19126;47.472;7.850;2023-05-14T03:59:33;96479.69;;;8.24;16.39
32761;BME280;19126;47.472;7.850;2023-05-14T04:02:00;96477.06;;;8.24;15.69
32761;BME280;19126;47.472;7.850;2023-05-14T04:04:28;96480.34;;;8.26;15.23
32761;BME280;19126;47.472;7.850;2023-05-14T04:06:55;96487.06;;;8.28;15.75
32761;BME280;19126;47.472;7.850;2023-05-14T04:09:22;96482.16;;;8.25;15.27
32761;BME280;19126;47.472;7.850;2023-05-14T04:11:51;96480.84;;;8.29;14.98
32761;BME280;19126;47.472;7.850;2023-05-14T04:14:18;96480.66;;;8.31;15.07
32761;BME280;19126;47.472;7.850;2023-05-14T04:16:45;96475.44;;;8.31;15.03
32761;BME280;19126;47.472;7.850;2023-05-14T04:19:13;96477.91;;;8.32;15.37
32761;BME280;19126;47.472;7.850;2023-05-14T04:21:40;96472.66;;;8.32;15.00
32761;BME280;19126;47.472;7.850;2023-05-14T04:24:07;96469.06;;;8.33;14.66
32761;BME280;19126;47.472;7.850;2023-05-14T04:26:35;96473.13;;;8.36;14.51
32761;BME280;19126;47.472;7.850;2023-05-14T04:29:03;96476.91;;;8.42;14.78
32761;BME280;19126;47.472;7.850;2023-05-14T04:31:31;96470.69;;;8.34;14.38
32761;BME280;19126;47.472;7.850;2023-05-14T04:33:59;96476.41;;;8.38;15.74
32761;BME280;19126;47.472;7.850;2023-05-14T04:36:26;96483.78;;;8.43;15.69
32761;BME280;19126;47.472;7.850;2023-05-14T04:38:53;96481.00;;;8.36;15.11
32761;BME280;19126;47.472;7.850;2023-05-14T04:41:21;96483.78;;;8.34;16.49
32761;BME280;19126;47.472;7.850;2023-05-14T04:43:49;96480.66;;;8.31;16.15
32761;BME280;19126;47.472;7.850;2023-05-14T04:46:18;96478.56;;;8.34;15.99
32761;BME280;19126;47.472;7.850;2023-05-14T04:48:45;96490.81;;;8.42;16.15
32761;BME280;19126;47.472;7.850;2023-05-14T04:51:13;96488.84;;;8.44;15.67
32761;BME280;19126;47.472;7.850;2023-05-14T04:53:40;96476.44;;;8.55;15.43
32761;BME280;19126;47.472;7.850;2023-05-14T04:56:07;96477.72;;;8.67;15.10
32761;BME280;19126;47.472;7.850;2023-05-14T04:58:35;96480.53;;;8.74;16.00
32761;BME280;19126;47.472;7.850;2023-05-14T05:01:04;96485.44;;;8.77;16.32
32761;BME280;19126;47.472;7.850;2023-05-14T05:03:33;96476.91;;;8.75;17.36
32761;BME280;19126;47.472;7.850;2023-05-14T05:06:00;96482.47;;;8.88;17.10
32761;BME280;19126;47.472;7.850;2023-05-14T05:08:28;96480.00;;;8.87;17.54
32761;BME280;19126;47.472;7.850;2023-05-14T05:10:55;96475.25;;;8.90;17.12
32761;BME280;19126;47.472;7.850;2023-05-14T05:13:22;96478.34;;;8.94;17.17
32761;BME280;19126;47.472;7.850;2023-05-14T05:15:49;96482.59;;;8.95;18.15
32761;BME280;19126;47.472;7.850;2023-05-14T05:18:17;96475.56;;;8.96;18.78
32761;BME280;19126;47.472;7.850;2023-05-14T05:20:45;96484.72;;;9.00;18.22
32761;BME280;19126;47.472;7.850;2023-05-14T05:23:12;96484.53;;;9.01;19.71
32761;BME280;19126;47.472;7.850;2023-05-14T05:25:40;96478.16;;;9.04;19.13
32761;BME280;19126;47.472;7.850;2023-05-14T05:28:07;96473.69;;;9.13;19.84
32761;BME280;19126;47.472;7.850;2023-05-14T05:30:34;96474.66;;;9.20;19.41
32761;BME280;19126;47.472;7.850;2023-05-14T05:33:01;96469.25;;;9.30;19.58
32761;BME280;19126;47.472;7.850;2023-05-14T05:35:29;96476.75;;;9.33;20.39
32761;BME280;19126;47.472;7.850;2023-05-14T05:37:58;96479.03;;;9.36;20.98
32761;BME280;19126;47.472;7.850;2023-05-14T05:40:25;96493.81;;;9.29;22.65
32761;BME280;19126;47.472;7.850;2023-05-14T05:42:53;96493.97;;;9.27;24.12
32761;BME280;19126;47.472;7.850;2023-05-14T05:45:20;96494.94;;;9.26;26.12
32761;BME280;19126;47.472;7.850;2023-05-14T05:47:47;96506.13;;;9.28;27.97
32761;BME280;19126;47.472;7.850;2023-05-14T05:50:15;96502.66;;;9.28;29.35
32761;BME280;19126;47.472;7.850;2023-05-14T05:52:42;96502.03;;;9.26;32.82
32761;BME280;19126;47.472;7.850;2023-05-14T05:55:11;96506.28;;;9.27;32.54
32761;BME280;19126;47.472;7.850;2023-05-14T05:57:38;96494.97;;;9.34;32.66
32761;BME280;19126;47.472;7.850;2023-05-14T06:00:07;96489.03;;;9.41;33.08
32761;BME280;19126;47.472;7.850;2023-05-14T06:02:40;96487.81;;;9.51;32.13
32761;BME280;19126;47.472;7.850;2023-05-14T06:05:09;96484.47;;;9.66;32.69
32761;BME280;19126;47.472;7.850;2023-05-14T06:07:37;96488.06;;;9.73;32.42
32761;BME280;19126;47.472;7.850;2023-05-14T06:10:06;96487.91;;;9.75;34.28
32761;BME280;19126;47.472;7.850;2023-05-14T06:12:35;96488.59;;;9.68;36.14
32761;BME280;19126;47.472;7.850;2023-05-14T06:15:03;96481.16;;;9.72;38.16
32761;BME280;19126;47.472;7.850;2023-05-14T06:17:30;96485.09;;;9.76;38.30
32761;BME280;19126;47.472;7.850;2023-05-14T06:19:57;96489.19;;;9.79;39.95
32761;BME280;19126;47.472;7.850;2023-05-14T06:22:25;96488.94;;;9.89;38.71
32761;BME280;19126;47.472;7.850;2023-05-14T06:24:52;96498.47;;;9.90;39.78
32761;BME280;19126;47.472;7.850;2023-05-14T06:27:19;96502.72;;;9.91;40.18
32761;BME280;19126;47.472;7.850;2023-05-14T06:29:48;96497.94;;;9.94;38.78
32761;BME280;19126;47.472;7.850;2023-05-14T06:32:15;96484.19;;;9.92;39.83
32761;BME280;19126;47.472;7.850;2023-05-14T06:34:42;96495.50;;;9.93;40.01
32761;BME280;19126;47.472;7.850;2023-05-14T06:37:10;96491.31;;;10.07;38.98
32761;BME280;19126;47.472;7.850;2023-05-14T06:39:38;96487.34;;;10.11;37.76
32761;BME280;19126;47.472;7.850;2023-05-14T06:42:05;96488.44;;;10.17;37.14
32761;BME280;19126;47.472;7.850;2023-05-14T06:44:33;96491.19;;;10.23;37.05
32761;BME280;19126;47.472;7.850;2023-05-14T06:47:02;96483.97;;;10.25;38.38
32761;BME280;19126;47.472;7.850;2023-05-14T06:49:31;96484.41;;;10.29;38.69
32761;BME280;19126;47.472;7.850;2023-05-14T06:51:58;96488.47;;;10.40;38.30
32761;BME280;19126;47.472;7.850;2023-05-14T06:54:26;96486.59;;;10.49;38.97
32761;BME280;19126;47.472;7.850;2023-05-14T06:56:53;96483.44;;;10.53;40.26
32761;BME280;19126;47.472;7.850;2023-05-14T06:59:20;96489.47;;;10.62;41.25
32761;BME280;19126;47.472;7.850;2023-05-14T07:01:47;96494.00;;;10.68;44.05
32761;BME280;19126;47.472;7.850;2023-05-14T07:04:16;96487.56;;;10.71;49.16
32761;BME280;19126;47.472;7.850;2023-05-14T07:06:43;96479.16;;;10.76;53.90
32761;BME280;19126;47.472;7.850;2023-05-14T07:09:10;96485.56;;;10.73;59.85
32761;BME280;19126;47.472;7.850;2023-05-14T07:11:38;96486.84;;;10.77;62.12
32761;BME280;19126;47.472;7.850;2023-05-14T07:14:05;96477.97;;;10.78;63.83
32761;BME280;19126;47.472;7.850;2023-05-14T07:16:32;96482.72;;;10.83;65.38
32761;BME280;19126;47.472;7.850;2023-05-14T07:19:00;96483.44;;;10.92;68.76
32761;BME280;19126;47.472;7.850;2023-05-14T07:21:29;96474.03;;;10.97;74.67
32761;BME280;19126;47.472;7.850;2023-05-14T07:23:56;96479.34;;;11.04;77.09
32761;BME280;19126;47.472;7.850;2023-05-14T07:26:23;96477.91;;;11.17;76.92
32761;BME280;19126;47.472;7.850;2023-05-14T07:28:51;96483.00;;;11.18;79.81
32761;BME280;19126;47.472;7.850;2023-05-14T07:31:18;96482.00;;;11.19;85.03
32761;BME280;19126;47.472;7.850;2023-05-14T07:33:45;96478.72;;;11.32;85.10
32761;BME280;19126;47.472;7.850;2023-05-14T07:36:13;96472.09;;;11.36;86.61
32761;BME280;19126;47.472;7.850;2023-05-14T07:38:41;96466.56;;;11.46;87.17
32761;BME280;19126;47.472;7.850;2023-05-14T07:41:09;96476.16;;;11.54;87.75
32761;BME280;19126;47.472;7.850;2023-05-14T07:43:37;96470.78;;;11.62;87.18
32761;BME280;19126;47.472;7.850;2023-05-14T07:46:05;96468.53;;;11.74;87.50
32761;BME280;19126;47.472;7.850;2023-05-14T07:48:32;96479.38;;;11.86;88.19
32761;BME280;19126;47.472;7.850;2023-05-14T07:50:59;96480.91;;;11.95;87.04
32761;BME280;19126;47.472;7.850;2023-05-14T07:53:27;96477.91;;;11.98;91.20
32761;BME280;19126;47.472;7.850;2023-05-14T07:55:55;96475.97;;;12.07;96.23
32761;BME280;19126;47.472;7.850;2023-05-14T07:58:24;96478.19;;;12.04;100.00
32761;BME280;19126;47.472;7.850;2023-05-14T08:00:52;96469.28;;;12.05;100.00
32761;BME280;19126;47.472;7.850;2023-05-14T08:03:20;96479.69;;;12.13;100.00
32761;BME280;19126;47.472;7.850;2023-05-14T08:05:47;96475.44;;;12.12;100.00
32761;BME280;19126;47.472;7.850;2023-05-14T08:08:14;96483.75;;;12.15;100.00
32761;BME280;19126;47.472;7.850;2023-05-14T08:10:42;96474.69;;;12.18;100.00
32761;BME280;19126;47.472;7.850;2023-05-14T08:13:10;96470.78;;;12.14;100.00
32761;BME280;19126;47.472;7.850;2023-05-14T08:15:37;96485.22;;;12.18;100.00
32761;BME280;19126;47.472;7.850;2023-05-14T08:18:05;96479.50;;;12.14;100.00
32761;BME280;19126;47.472;7.850;2023-05-14T08:20:32;96474.59;;;12.11;100.00
32761;BME280;19126;47.472;7.850;2023-05-14T08:22:59;96479.53;;;11.99;100.00
32761;BME280;19126;47.472;7.850;2023-05-14T08:25:26;96482.09;;;11.93;100.00
32761;BME280;19126;47.472;7.850;2023-05-14T08:27:54;96482.25;;;11.91;100.00
32761;BME280;19126;47.472;7.850;2023-05-14T08:30:22;96479.63;;;11.91;100.00
32761;BME280;19126;47.472;7.850;2023-05-14T08:32:50;96477.66;;;11.93;100.00
32761;BME280;19126;47.472;7.850;2023-05-14T08:35:17;96476.72;;;12.01;100.00
32761;BME280;19126;47.472;7.850;2023-05-14T08:37:45;96473.59;;;12.12;100.00
32761;BME280;19126;47.472;7.850;2023-05-14T08:40:12;96480.38;;;12.22;100.00
32761;BME280;19126;47.472;7.850;2023-05-14T08:42:40;96476.22;;;12.34;100.00
32761;BME280;19126;47.472;7.850;2023-05-14T08:45:15;96477.34;;;12.46;100.00
32761;BME280;19126;47.472;7.850;2023-05-14T08:47:47;96472.72;;;12.49;100.00
32761;BME280;19126;47.472;7.850;2023-05-14T08:50:16;96474.59;;;12.55;100.00
32761;BME280;19126;47.472;7.850;2023-05-14T08:52:45;96461.72;;;12.67;100.00
32761;BME280;19126;47.472;7.850;2023-05-14T08:55:12;96467.03;;;12.73;100.00
32761;BME280;19126;47.472;7.850;2023-05-14T08:57:40;96460.81;;;12.81;100.00
32761;BME280;19126;47.472;7.850;2023-05-14T09:00:09;96459.19;;;12.80;100.00
32761;BME280;19126;47.472;7.850;2023-05-14T09:02:39;96455.09;;;12.78;100.00
32761;BME280;19126;47.472;7.850;2023-05-14T09:05:09;96458.13;;;12.74;100.00
32761;BME280;19126;47.472;7.850;2023-05-14T09:07:37;96458.88;;;12.68;100.00
32761;BME280;19126;47.472;7.850;2023-05-14T09:10:06;96462.34;;;12.69;100.00
32761;BME280;19126;47.472;7.850;2023-05-14T09:12:34;96455.84;;;12.71;100.00
32761;BME280;19126;47.472;7.850;2023-05-14T09:15:01;96457.56;;;12.79;100.00
32761;BME280;19126;47.472;7.850;2023-05-14T09:17:29;96448.16;;;12.70;100.00
32761;BME280;19126;47.472;7.850;2023-05-14T09:19:57;96450.72;;;12.63;100.00
32761;BME280;19126;47.472;7.850;2023-05-14T09:22:28;96450.72;;;12.63;100.00
32761;BME280;19126;47.472;7.850;2023-05-14T09:25:04;96445.28;;;12.65;100.00
32761;BME280;19126;47.472;7.850;2023-05-14T09:27:32;96452.59;;;12.69;100.00
32761;BME280;19126;47.472;7.850;2023-05-14T09:30:08;96445.16;;;12.73;100.00
32761;BME280;19126;47.472;7.850;2023-05-14T09:32:38;96447.25;;;12.84;100.00
32761;BME280;19126;47.472;7.850;2023-05-14T09:35:11;96454.56;;;12.89;100.00
32761;BME280;19126;47.472;7.850;2023-05-14T09:37:43;96451.16;;;12.95;100.00
32761;BME280;19126;47.472;7.850;2023-05-14T09:40:11;96447.59;;;13.10;100.00
32761;BME280;19126;47.472;7.850;2023-05-14T09:42:40;96442.81;;;13.27;100.00
32761;BME280;19126;47.472;7.850;2023-05-14T09:45:08;96441.47;;;13.38;100.00
32761;BME280;19126;47.472;7.850;2023-05-14T09:47:36;96447.00;;;13.50;100.00
32761;BME280;19126;47.472;7.850;2023-05-14T09:50:05;96449.06;;;13.61;100.00
32761;BME280;19126;47.472;7.850;2023-05-14T09:52:32;96437.94;;;13.66;100.00
32761;BME280;19126;47.472;7.850;2023-05-14T09:55:01;96441.19;;;13.74;100.00
32761;BME280;19126;47.472;7.850;2023-05-14T09:57:29;96439.22;;;13.83;100.00
32761;BME280;19126;47.472;7.850;2023-05-14T09:59:56;96433.94;;;13.83;100.00
32761;BME280;19126;47.472;7.850;2023-05-14T10:02:25;96428.47;;;13.91;100.00
32761;BME280;19126;47.472;7.850;2023-05-14T10:04:56;96428.09;;;14.08;100.00
32761;BME280;19126;47.472;7.850;2023-05-14T10:07:32;96424.44;;;14.29;100.00
32761;BME280;19126;47.472;7.850;2023-05-14T10:10:09;96424.84;;;14.53;100.00
32761;BME280;19126;47.472;7.850;2023-05-14T10:12:38;96415.28;;;14.86;100.00
32761;BME280;19126;47.472;7.850;2023-05-14T10:15:14;96422.97;;;15.14;100.00
32761;BME280;19126;47.472;7.850;2023-05-14T10:17:48;96416.09;;;15.52;100.00
32761;BME280;19126;47.472;7.850;2023-05-14T10:20:19;96410.41;;;15.94;100.00
32761;BME280;19126;47.472;7.850;2023-05-14T10:22:46;96418.06;;;16.09;100.00
32761;BME280;19126;47.472;7.850;2023-05-14T10:25:15;96419.19;;;16.20;100.00
32761;BME280;19126;47.472;7.850;2023-05-14T10:27:43;96421.94;;;16.64;100.00
32761;BME280;19126;47.472;7.850;2023-05-14T10:30:12;96416.91;;;16.99;100.00
32761;BME280;19126;47.472;7.850;2023-05-14T10:32:39;96406.88;;;17.20;99.64
32761;BME280;19126;47.472;7.850;2023-05-14T10:35:16;96407.88;;;16.82;95.23
32761;BME280;19126;47.472;7.850;2023-05-14T10:37:45;96408.25;;;16.85;99.82
32761;BME280;19126;47.472;7.850;2023-05-14T10:40:14;96400.22;;;16.92;100.00
32761;BME280;19126;47.472;7.850;2023-05-14T10:42:43;96406.97;;;16.69;96.65
32761;BME280;19126;47.472;7.850;2023-05-14T10:45:13;96409.69;;;16.37;95.16
32761;BME280;19126;47.472;7.850;2023-05-14T10:47:43;96406.50;;;16.29;100.00
32761;BME280;19126;47.472;7.850;2023-05-14T10:50:13;96408.34;;;16.28;100.00
32761;BME280;19126;47.472;7.850;2023-05-14T10:52:42;96405.41;;;16.36;100.00
32761;BME280;19126;47.472;7.850;2023-05-14T10:55:13;96403.38;;;16.38;100.00
32761;BME280;19126;47.472;7.850;2023-05-14T10:57:45;96403.59;;;16.37;100.00
32761;BME280;19126;47.472;7.850;2023-05-14T11:00:13;96400.88;;;16.44;100.00
32761;BME280;19126;47.472;7.850;2023-05-14T11:02:43;96399.75;;;16.33;100.00
32761;BME280;19126;47.472;7.850;2023-05-14T11:05:13;96400.88;;;16.44;100.00
32761;BME280;19126;47.472;7.850;2023-05-14T11:07:43;96397.38;;;16.24;98.67
32761;BME280;19126;47.472;7.850;2023-05-14T11:10:14;96396.00;;;16.15;100.00
32761;BME280;19126;47.472;7.850;2023-05-14T11:12:45;96389.69;;;16.16;100.00
32761;BME280;19126;47.472;7.850;2023-05-14T11:15:14;96387.72;;;16.05;98.24
32761;BME280;19126;47.472;7.850;2023-05-14T11:17:43;96389.53;;;16.11;99.11
32761;BME280;19126;47.472;7.850;2023-05-14T11:20:12;96386.44;;;16.14;100.00
32761;BME280;19126;47.472;7.850;2023-05-14T11:22:41;96390.19;;;16.32;98.32
32761;BME280;19126;47.472;7.850;2023-05-14T11:25:10;96390.06;;;16.45;100.00
32761;BME280;19126;47.472;7.850;2023-05-14T11:27:42;96381.41;;;16.57;100.00
32761;BME280;19126;47.472;7.850;2023-05-14T11:30:13;96389.16;;;16.77;100.00
32761;BME280;19126;47.472;7.850;2023-05-14T11:32:43;96383.69;;;16.97;98.03
32761;BME280;19126;47.472;7.850;2023-05-14T11:35:12;96373.84;;;17.16;100.00
32761;BME280;19126;47.472;7.850;2023-05-14T11:37:40;96377.88;;;17.25;100.00
32761;BME280;19126;47.472;7.850;2023-05-14T11:40:13;96369.81;;;17.32;97.94
32761;BME280;19126;47.472;7.850;2023-05-14T11:42:42;96369.22;;;17.30;97.17
32761;BME280;19126;47.472;7.850;2023-05-14T11:45:11;96373.84;;;17.16;99.49
32761;BME280;19126;47.472;7.850;2023-05-14T11:47:39;96371.25;;;16.91;96.86
32761;BME280;19126;47.472;7.850;2023-05-14T11:50:08;96371.63;;;16.76;91.90
32761;BME280;19126;47.472;7.850;2023-05-14T11:52:38;96368.38;;;16.74;99.12
32761;BME280;19126;47.472;7.850;2023-05-14T11:55:10;96370.34;;;16.60;100.00
32761;BME280;19126;47.472;7.850;2023-05-14T11:57:37;96365.66;;;16.62;99.51
32761;BME280;19126;47.472;7.850;2023-05-14T12:00:10;96364.06;;;16.54;96.48
32761;BME280;19126;47.472;7.850;2023-05-14T12:02:41;96355.16;;;16.48;98.34
32761;BME280;19126;47.472;7.850;2023-05-14T12:05:12;96360.06;;;16.45;98.62
32761;BME280;19126;47.472;7.850;2023-05-14T12:07:39;96344.59;;;16.41;100.00
32761;BME280;19126;47.472;7.850;2023-05-14T12:10:10;96349.31;;;16.39;100.00
32761;BME280;19126;47.472;7.850;2023-05-14T12:12:38;96363.34;;;16.21;100.00
32761;BME280;19126;47.472;7.850;2023-05-14T12:15:12;96353.34;;;16.23;100.00
32761;BME280;19126;47.472;7.850;2023-05-14T12:17:40;96354.22;;;16.17;100.00
32761;BME280;19126;47.472;7.850;2023-05-14T12:20:09;96354.03;;;16.12;100.00
32761;BME280;19126;47.472;7.850;2023-05-14T12:22:37;96352.59;;;16.16;100.00
32761;BME280;19126;47.472;7.850;2023-05-14T12:25:11;96347.19;;;16.30;100.00
32761;BME280;19126;47.472;7.850;2023-05-14T12:27:39;96349.13;;;16.41;100.00
32761;BME280;19126;47.472;7.850;2023-05-14T12:30:08;96345.78;;;16.46;97.76
32761;BME280;19126;47.472;7.850;2023-05-14T12:32:42;96351.19;;;16.58;99.63
32761;BME280;19126;47.472;7.850;2023-05-14T12:35:09;96354.88;;;16.57;100.00
32761;BME280;19126;47.472;7.850;2023-05-14T12:37:37;96342.41;;;16.57;99.49
32761;BME280;19126;47.472;7.850;2023-05-14T12:40:06;96352.91;;;16.70;98.63
32761;BME280;19126;47.472;7.850;2023-05-14T12:42:34;96345.53;;;16.73;100.00
32761;BME280;19126;47.472;7.850;2023-05-14T12:45:05;96343.75;;;16.85;100.00
32761;BME280;19126;47.472;7.850;2023-05-14T12:47:33;96342.75;;;17.05;100.00
32761;BME280;19126;47.472;7.850;2023-05-14T12:50:02;96339.16;;;17.18;98.56
32761;BME280;19126;47.472;7.850;2023-05-14T12:52:29;96339.34;;;17.35;98.17
32761;BME280;19126;47.472;7.850;2023-05-14T12:54:57;96340.59;;;17.32;97.63
32761;BME280;19126;47.472;7.850;2023-05-14T12:57:24;96342.69;;;17.11;92.18
32761;BME280;19126;47.472;7.850;2023-05-14T12:59:52;96351.22;;;16.95;95.40
32761;BME280;19126;47.472;7.850;2023-05-14T13:02:20;96346.13;;;16.93;96.81
32761;BME280;19126;47.472;7.850;2023-05-14T13:04:47;96343.69;;;16.92;96.98
32761;BME280;19126;47.472;7.850;2023-05-14T13:09:51;96342.22;;;16.77;85.86
32761;BME280;19126;47.472;7.850;2023-05-14T13:12:18;96342.38;;;16.64;85.58
32761;BME280;19126;47.472;7.850;2023-05-14T13:14:46;96335.50;;;16.56;91.59